This is the latest recevied weather packets stored in our database for station/object N9ALD. If no packets are shown the sender has not sent any weather packets the latest 10 day(s).
| Time | Temp. | Humidity | Pressure | Rain* | Wind** | Luminosity | Snow |
|---|---|---|---|---|---|---|---|
| 1777215670 | 13.89° C | 79% | 1014.2 hPa | 0 mm | - | 543 W/m² | - |
| 1777215370 | 13.89° C | 78% | 1014.4 hPa | 0 mm | - | 338 W/m² | - |
| 1777215067 | 13.33° C | 80% | 1014.1 hPa | 0 mm | - | 450 W/m² | - |
| 1777214767 | 13.33° C | 79% | 1014.2 hPa | 0 mm | - | 474 W/m² | - |
| 1777214461 | 13.33° C | 79% | 1014.3 hPa | 0 mm | - | 468 W/m² | - |
| 1777214156 | 12.78° C | 80% | 1014.3 hPa | 0 mm | - | 417 W/m² | - |
| 1777213850 | 12.78° C | 82% | 1014.5 hPa | 0 mm | - | 301 W/m² | - |
| 1777213546 | 12.78° C | 82% | 1014.1 hPa | 0 mm | - | 341 W/m² | - |
| 1777213243 | 12.78° C | 79% | 1014.1 hPa | 0 mm | - | 301 W/m² | - |
| 1777212939 | 13.89° C | 76% | 1014.1 hPa | 0 mm | - | 260 W/m² | - |
| 1777212638 | 13.89° C | 75% | 1014.2 hPa | 0 mm | - | 170 W/m² | - |
| 1777212335 | 13.33° C | 79% | 1014.1 hPa | 0 mm | - | 523 W/m² | - |
| 1777212031 | 12.78° C | 81% | 1014.1 hPa | 0 mm | - | 275 W/m² | - |
| 1777211727 | 12.22° C | 81% | 1014.4 hPa | 0 mm | - | 392 W/m² | - |
| 1777211426 | 12.22° C | 84% | 1014.2 hPa | 0 mm | - | 208 W/m² | - |
| 1777211122 | 11.67° C | 85% | 1014.3 hPa | 0 mm | - | 271 W/m² | - |
| 1777210819 | 11.67° C | 84% | 1014.3 hPa | 0 mm | - | 215 W/m² | - |
| 1777210517 | 11.67° C | 84% | 1014.2 hPa | 0 mm | - | 214 W/m² | - |
| 1777210215 | 11.11° C | 84% | 1014.2 hPa | 0 mm | - | 182 W/m² | - |
| 1777209911 | 11.67° C | 83% | 1014.2 hPa | 0 mm | - | 158 W/m² | - |
| 1777209606 | 11.67° C | 84% | 1014.1 hPa | 0 mm | - | 156 W/m² | - |
| 1777209301 | 11.11° C | 86% | 1014.2 hPa | 0 mm | - | 190 W/m² | - |
| 1777208999 | 10.56° C | 87% | 1014 hPa | 0 mm | - | 159 W/m² | - |
| 1777208694 | 10.56° C | 86% | 1014 hPa | 0 mm | - | 138 W/m² | - |
| 1777208391 | 10.56° C | 87% | 1014 hPa | 0 mm | - | 145 W/m² | - |
* Rain latest hour (hover to see other rain measurements)
** Current wind speed in m/s (hover to see current wind gust speed)